EFW527R EGKK-LPMA
Flight info
| Callsign | EFW527R |
|---|---|
| Flight time | 3h 32m |
| Altitude | 35000 |
| Route | NOVMA L620 SAM M195 LORKU DCT EBOMO DCT COQUE DCT KORUL DCT AGADO/N0440F370 DCT LAMDI DCT VABEM DCT LIDRO |
| Aircraft | A320/M-SDE3FGHIRWY/LB1 |
Departure
| Time | 2026-04-14 13:17 |
|---|---|
| Airport | London Gatwick Airport (EGKK) |
Arrival
| Time | 2026-04-14 16:49 |
|---|---|
| Airport | Cristiano Ronaldo International Airport (LPMA) |
| Time | Latitude | Longitude | Altitude | Speed | Heading |
|---|---|---|---|---|---|
| 2026-04-14 12:55 | 51.15886 | -0.16922 | 203 ft | 0 kts | 151° |
| 2026-04-14 13:02 | 51.15898 | -0.16933 | 216 ft | 4 kts | 151° |
| 2026-04-14 13:02 | 51.15922 | -0.16954 | 213 ft | 4 kts | 151° |
| 2026-04-14 13:02 | 51.15944 | -0.16973 | 216 ft | 4 kts | 175° |
| 2026-04-14 13:03 | 51.15959 | -0.16961 | 207 ft | 2 kts | 248° |
| 2026-04-14 13:03 | 51.15966 | -0.16932 | 216 ft | 1 kts | 248° |
| 2026-04-14 13:03 | 51.15966 | -0.16931 | 216 ft | 0 kts | 248° |
| 2026-04-14 13:08 | 51.15964 | -0.16938 | 214 ft | 4 kts | 246° |
| 2026-04-14 13:09 | 51.15937 | -0.16999 | 211 ft | 8 kts | 230° |
| 2026-04-14 13:09 | 51.15889 | -0.17059 | 209 ft | 10 kts | 208° |
| 2026-04-14 13:09 | 51.15830 | -0.17092 | 211 ft | 8 kts | 211° |
| 2026-04-14 13:09 | 51.15805 | -0.17179 | 212 ft | 10 kts | 257° |
| 2026-04-14 13:10 | 51.15790 | -0.17291 | 213 ft | 11 kts | 258° |
| 2026-04-14 13:10 | 51.15773 | -0.17421 | 209 ft | 13 kts | 258° |
| 2026-04-14 13:10 | 51.15723 | -0.17497 | 203 ft | 8 kts | 177° |
| 2026-04-14 13:10 | 51.15667 | -0.17478 | 210 ft | 6 kts | 167° |
| 2026-04-14 13:11 | 51.15666 | -0.17478 | 210 ft | 0 kts | 167° |
| 2026-04-14 13:13 | 51.15658 | -0.17475 | 203 ft | 3 kts | 167° |
| 2026-04-14 13:13 | 51.15632 | -0.17465 | 208 ft | 6 kts | 167° |
| 2026-04-14 13:13 | 51.15579 | -0.17447 | 213 ft | 9 kts | 167° |
| 2026-04-14 13:14 | 51.15512 | -0.17424 | 210 ft | 11 kts | 168° |
| 2026-04-14 13:14 | 51.15434 | -0.17397 | 208 ft | 12 kts | 167° |
| 2026-04-14 13:14 | 51.15346 | -0.17367 | 205 ft | 14 kts | 168° |
| 2026-04-14 13:14 | 51.15251 | -0.17320 | 210 ft | 15 kts | 149° |
| 2026-04-14 13:15 | 51.15182 | -0.17220 | 208 ft | 14 kts | 110° |
| 2026-04-14 13:15 | 51.15199 | -0.17064 | 205 ft | 15 kts | 77° |
| 2026-04-14 13:15 | 51.15220 | -0.16916 | 212 ft | 10 kts | 78° |
| 2026-04-14 13:15 | 51.15207 | -0.16810 | 205 ft | 11 kts | 134° |
| 2026-04-14 13:16 | 51.15129 | -0.16806 | 202 ft | 13 kts | 217° |
| 2026-04-14 13:16 | 51.15112 | -0.16864 | 213 ft | 1 kts | 256° |
| 2026-04-14 13:16 | 51.15096 | -0.16980 | 209 ft | 39 kts | 257° |
| 2026-04-14 13:16 | 51.14984 | -0.17758 | 213 ft | 102 kts | 258° |
| 2026-04-14 13:17 | 51.14798 | -0.19132 | 214 ft | 150 kts | 257° |
| 2026-04-14 13:17 | 51.14554 | -0.20945 | 336 ft | 176 kts | 252° |
| 2026-04-14 13:17 | 51.14306 | -0.22827 | 1041 ft | 173 kts | 250° |
| 2026-04-14 13:17 | 51.13949 | -0.25372 | 1732 ft | 191 kts | 250° |
| 2026-04-14 13:18 | 51.13738 | -0.26819 | 1983 ft | 206 kts | 251° |
| 2026-04-14 13:18 | 51.13398 | -0.29166 | 2351 ft | 229 kts | 252° |
| 2026-04-14 13:18 | 51.13030 | -0.31762 | 2900 ft | 247 kts | 252° |
| 2026-04-14 13:18 | 51.12657 | -0.34459 | 3745 ft | 250 kts | 253° |
| 2026-04-14 13:19 | 51.12286 | -0.37177 | 4638 ft | 252 kts | 254° |
| 2026-04-14 13:19 | 51.11916 | -0.39869 | 5472 ft | 253 kts | 254° |
| 2026-04-14 13:19 | 51.11518 | -0.42610 | 6292 ft | 254 kts | 250° |
| 2026-04-14 13:19 | 51.10803 | -0.45182 | 7044 ft | 255 kts | 242° |
| 2026-04-14 13:20 | 51.10009 | -0.47739 | 7785 ft | 258 kts | 242° |
| 2026-04-14 13:20 | 51.09197 | -0.50333 | 8473 ft | 263 kts | 242° |
| 2026-04-14 13:20 | 51.08379 | -0.52934 | 9192 ft | 266 kts | 242° |
| 2026-04-14 13:20 | 51.07549 | -0.55579 | 9804 ft | 272 kts | 242° |
| 2026-04-14 13:21 | 51.06709 | -0.58271 | 10500 ft | 273 kts | 242° |
| 2026-04-14 13:21 | 51.05847 | -0.61031 | 11169 ft | 275 kts | 242° |
| 2026-04-14 13:21 | 51.05195 | -0.63861 | 11832 ft | 279 kts | 255° |
| 2026-04-14 13:21 | 51.04791 | -0.66900 | 12452 ft | 283 kts | 256° |
| 2026-04-14 13:22 | 51.04385 | -0.69958 | 13131 ft | 284 kts | 256° |
| 2026-04-14 13:22 | 51.03972 | -0.73051 | 13771 ft | 287 kts | 256° |
| 2026-04-14 13:22 | 51.03557 | -0.76167 | 14330 ft | 290 kts | 256° |
| 2026-04-14 13:22 | 51.03122 | -0.79408 | 14450 ft | 310 kts | 256° |
| 2026-04-14 13:23 | 51.02655 | -0.82856 | 14577 ft | 327 kts | 256° |
| 2026-04-14 13:23 | 51.02165 | -0.86451 | 14860 ft | 338 kts | 257° |
| 2026-04-14 13:23 | 51.01664 | -0.90127 | 15317 ft | 343 kts | 257° |
| 2026-04-14 13:23 | 51.01157 | -0.93844 | 15825 ft | 346 kts | 257° |
| 2026-04-14 13:24 | 51.00644 | -0.97589 | 16365 ft | 348 kts | 258° |
| 2026-04-14 13:24 | 50.99609 | -1.05137 | 17432 ft | 353 kts | 258° |
| 2026-04-14 13:24 | 50.99085 | -1.08961 | 17901 ft | 358 kts | 258° |
| 2026-04-14 13:25 | 50.98553 | -1.12831 | 18428 ft | 360 kts | 258° |
| 2026-04-14 13:25 | 50.98012 | -1.16736 | 18915 ft | 362 kts | 258° |
| 2026-04-14 13:26 | 50.96315 | -1.28492 | 20358 ft | 371 kts | 254° |
| 2026-04-14 13:26 | 50.95276 | -1.32264 | 20833 ft | 377 kts | 242° |
| 2026-04-14 13:26 | 50.93732 | -1.35653 | 21304 ft | 383 kts | 231° |
| 2026-04-14 13:26 | 50.91721 | -1.38483 | 21756 ft | 392 kts | 218° |
| 2026-04-14 13:27 | 50.89430 | -1.40868 | 22190 ft | 395 kts | 217° |
| 2026-04-14 13:27 | 50.87120 | -1.43253 | 22667 ft | 397 kts | 217° |
| 2026-04-14 13:27 | 50.84802 | -1.45655 | 23103 ft | 400 kts | 218° |
| 2026-04-14 13:27 | 50.82467 | -1.48083 | 23518 ft | 403 kts | 218° |
| 2026-04-14 13:28 | 50.80115 | -1.50530 | 23879 ft | 406 kts | 218° |
| 2026-04-14 13:28 | 50.77748 | -1.52991 | 24218 ft | 408 kts | 218° |
| 2026-04-14 13:28 | 50.75366 | -1.55462 | 24549 ft | 411 kts | 218° |
| 2026-04-14 13:28 | 50.72966 | -1.57944 | 24876 ft | 413 kts | 218° |
| 2026-04-14 13:29 | 50.70551 | -1.60437 | 25208 ft | 416 kts | 218° |
| 2026-04-14 13:29 | 50.68120 | -1.62940 | 25517 ft | 418 kts | 218° |
| 2026-04-14 13:29 | 50.65672 | -1.65460 | 25831 ft | 421 kts | 218° |
| 2026-04-14 13:29 | 50.63213 | -1.67988 | 26128 ft | 423 kts | 218° |
| 2026-04-14 13:30 | 50.60736 | -1.70534 | 26394 ft | 426 kts | 218° |
| 2026-04-14 13:30 | 50.58246 | -1.73091 | 26679 ft | 429 kts | 218° |
| 2026-04-14 13:30 | 50.55736 | -1.75660 | 26985 ft | 431 kts | 218° |
| 2026-04-14 13:30 | 50.53212 | -1.78237 | 27273 ft | 434 kts | 218° |
| 2026-04-14 13:31 | 50.50672 | -1.80827 | 27566 ft | 436 kts | 218° |
| 2026-04-14 13:31 | 50.48121 | -1.83430 | 27853 ft | 438 kts | 219° |
| 2026-04-14 13:31 | 50.45555 | -1.86046 | 28132 ft | 440 kts | 219° |
| 2026-04-14 13:31 | 50.42982 | -1.88664 | 28489 ft | 441 kts | 219° |
| 2026-04-14 13:32 | 50.40402 | -1.91288 | 28791 ft | 443 kts | 219° |
| 2026-04-14 13:32 | 50.37822 | -1.93910 | 29171 ft | 443 kts | 219° |
| 2026-04-14 13:32 | 50.35233 | -1.96529 | 29555 ft | 442 kts | 219° |
| 2026-04-14 13:32 | 50.32678 | -1.99107 | 29952 ft | 442 kts | 219° |
| 2026-04-14 13:33 | 50.30062 | -2.01741 | 30325 ft | 442 kts | 219° |
| 2026-04-14 13:33 | 50.27511 | -2.04308 | 30685 ft | 441 kts | 219° |
| 2026-04-14 13:33 | 50.24901 | -2.06935 | 31060 ft | 440 kts | 219° |
| 2026-04-14 13:33 | 50.22329 | -2.09505 | 31419 ft | 439 kts | 219° |
| 2026-04-14 13:34 | 50.17191 | -2.14527 | 32135 ft | 438 kts | 219° |
| 2026-04-14 13:34 | 50.14603 | -2.17030 | 32454 ft | 438 kts | 219° |
| 2026-04-14 13:34 | 50.12014 | -2.19531 | 32792 ft | 437 kts | 219° |
| 2026-04-14 13:35 | 50.09432 | -2.22022 | 33145 ft | 436 kts | 219° |
| 2026-04-14 13:35 | 50.06854 | -2.24511 | 33508 ft | 435 kts | 220° |
| 2026-04-14 13:35 | 50.04284 | -2.27000 | 33867 ft | 434 kts | 220° |
| 2026-04-14 13:35 | 50.01693 | -2.29508 | 34197 ft | 432 kts | 220° |
| 2026-04-14 13:36 | 49.99148 | -2.31964 | 34543 ft | 430 kts | 220° |
| 2026-04-14 13:36 | 49.96612 | -2.34406 | 34832 ft | 428 kts | 220° |
| 2026-04-14 13:36 | 49.94082 | -2.36840 | 35010 ft | 428 kts | 220° |
| 2026-04-14 13:37 | 49.89015 | -2.41735 | 35079 ft | 436 kts | 220° |
| 2026-04-14 13:37 | 49.83839 | -2.46726 | 35084 ft | 439 kts | 220° |
| 2026-04-14 13:38 | 49.78632 | -2.51707 | 35084 ft | 440 kts | 220° |
| 2026-04-14 13:38 | 49.73421 | -2.56680 | 35070 ft | 440 kts | 220° |
| 2026-04-14 13:39 | 49.68210 | -2.61651 | 35062 ft | 441 kts | 220° |
| 2026-04-14 13:39 | 49.62982 | -2.66627 | 35062 ft | 442 kts | 220° |
| 2026-04-14 13:40 | 49.57749 | -2.71598 | 35079 ft | 441 kts | 220° |
| 2026-04-14 13:40 | 49.52517 | -2.76540 | 35097 ft | 440 kts | 220° |
| 2026-04-14 13:41 | 49.47302 | -2.81457 | 35070 ft | 440 kts | 220° |
| 2026-04-14 13:41 | 49.42092 | -2.86370 | 35072 ft | 439 kts | 220° |
| 2026-04-14 13:42 | 49.36877 | -2.91287 | 35070 ft | 440 kts | 220° |
| 2026-04-14 13:42 | 49.31651 | -2.96184 | 35072 ft | 440 kts | 219° |
| 2026-04-14 13:43 | 49.26423 | -3.01052 | 35059 ft | 440 kts | 219° |
| 2026-04-14 13:43 | 49.21184 | -3.05926 | 35051 ft | 441 kts | 219° |
| 2026-04-14 13:44 | 49.15974 | -3.10764 | 35050 ft | 441 kts | 219° |
| 2026-04-14 13:44 | 49.10735 | -3.15622 | 35074 ft | 440 kts | 219° |
| 2026-04-14 13:45 | 49.05506 | -3.20465 | 35080 ft | 439 kts | 219° |
| 2026-04-14 13:45 | 49.00270 | -3.25309 | 35079 ft | 440 kts | 219° |
| 2026-04-14 13:46 | 48.95033 | -3.30126 | 35084 ft | 439 kts | 219° |
| 2026-04-14 13:46 | 48.89802 | -3.34918 | 35083 ft | 439 kts | 219° |
| 2026-04-14 13:47 | 48.84578 | -3.39716 | 35095 ft | 439 kts | 219° |
| 2026-04-14 13:47 | 48.79343 | -3.44509 | 35095 ft | 439 kts | 219° |
| 2026-04-14 13:48 | 48.74105 | -3.49274 | 35083 ft | 438 kts | 218° |
| 2026-04-14 13:48 | 48.68876 | -3.54018 | 35098 ft | 437 kts | 218° |
| 2026-04-14 13:49 | 48.63667 | -3.58744 | 35092 ft | 436 kts | 219° |
| 2026-04-14 13:49 | 48.58468 | -3.63451 | 35070 ft | 436 kts | 218° |
| 2026-04-14 13:50 | 48.53294 | -3.68119 | 35055 ft | 436 kts | 218° |
| 2026-04-14 13:50 | 48.48078 | -3.72816 | 35052 ft | 436 kts | 218° |
| 2026-04-14 13:51 | 48.42860 | -3.77507 | 35054 ft | 437 kts | 218° |
| 2026-04-14 13:51 | 48.37634 | -3.82190 | 35062 ft | 437 kts | 218° |
| 2026-04-14 13:52 | 48.32401 | -3.86865 | 35048 ft | 438 kts | 218° |
| 2026-04-14 13:52 | 48.27161 | -3.91532 | 35075 ft | 438 kts | 218° |
| 2026-04-14 13:53 | 48.21923 | -3.96189 | 35099 ft | 437 kts | 218° |
| 2026-04-14 13:53 | 48.16693 | -4.00840 | 35110 ft | 437 kts | 218° |
| 2026-04-14 13:54 | 48.11458 | -4.05476 | 35100 ft | 437 kts | 218° |
| 2026-04-14 13:54 | 48.06225 | -4.10098 | 35111 ft | 437 kts | 218° |
| 2026-04-14 13:55 | 48.00979 | -4.14713 | 35109 ft | 437 kts | 218° |
| 2026-04-14 13:55 | 47.95767 | -4.19288 | 35115 ft | 438 kts | 218° |
| 2026-04-14 13:56 | 47.90517 | -4.23896 | 35105 ft | 438 kts | 217° |
| 2026-04-14 13:56 | 47.85262 | -4.28496 | 35109 ft | 438 kts | 217° |
| 2026-04-14 13:57 | 47.80019 | -4.33099 | 35094 ft | 437 kts | 218° |
| 2026-04-14 13:57 | 47.74867 | -4.37858 | 35098 ft | 435 kts | 219° |
| 2026-04-14 13:58 | 47.69752 | -4.42672 | 35088 ft | 435 kts | 219° |
| 2026-04-14 13:58 | 47.64618 | -4.47451 | 35086 ft | 436 kts | 219° |
| 2026-04-14 13:59 | 47.59466 | -4.52197 | 35092 ft | 437 kts | 219° |
| 2026-04-14 13:59 | 47.54301 | -4.56923 | 35091 ft | 436 kts | 218° |
| 2026-04-14 14:00 | 47.49140 | -4.61653 | 35077 ft | 436 kts | 219° |
| 2026-04-14 14:00 | 47.43979 | -4.66391 | 35080 ft | 437 kts | 219° |
| 2026-04-14 14:01 | 47.38800 | -4.71113 | 35089 ft | 438 kts | 218° |
| 2026-04-14 14:01 | 47.33613 | -4.75833 | 35088 ft | 438 kts | 218° |
| 2026-04-14 14:02 | 47.28423 | -4.80547 | 35088 ft | 438 kts | 218° |
| 2026-04-14 14:02 | 47.24097 | -4.84461 | 35083 ft | 439 kts | 218° |
| 2026-04-14 14:03 | 47.18889 | -4.89161 | 35094 ft | 440 kts | 218° |
| 2026-04-14 14:03 | 47.13676 | -4.93859 | 35099 ft | 440 kts | 218° |
| 2026-04-14 14:04 | 47.08464 | -4.98551 | 35102 ft | 438 kts | 218° |
| 2026-04-14 14:04 | 47.03272 | -5.03232 | 35094 ft | 438 kts | 218° |
| 2026-04-14 14:05 | 46.98078 | -5.07909 | 35097 ft | 438 kts | 218° |
| 2026-04-14 14:05 | 46.92885 | -5.12570 | 35103 ft | 438 kts | 218° |
| 2026-04-14 14:06 | 46.87720 | -5.17186 | 35108 ft | 438 kts | 218° |
| 2026-04-14 14:06 | 46.82520 | -5.21827 | 35097 ft | 438 kts | 218° |
| 2026-04-14 14:07 | 46.77316 | -5.26478 | 35096 ft | 439 kts | 218° |
| 2026-04-14 14:07 | 46.72101 | -5.31111 | 35100 ft | 439 kts | 218° |
| 2026-04-14 14:08 | 46.66889 | -5.35720 | 35125 ft | 438 kts | 218° |
| 2026-04-14 14:08 | 46.61683 | -5.40326 | 35129 ft | 437 kts | 218° |
| 2026-04-14 14:09 | 46.56494 | -5.44919 | 35120 ft | 436 kts | 218° |
| 2026-04-14 14:09 | 46.51314 | -5.49488 | 35120 ft | 435 kts | 218° |
| 2026-04-14 14:10 | 46.46130 | -5.54042 | 35116 ft | 435 kts | 218° |
| 2026-04-14 14:10 | 46.40945 | -5.58586 | 35104 ft | 436 kts | 217° |
| 2026-04-14 14:11 | 46.35744 | -5.63125 | 35103 ft | 436 kts | 217° |
| 2026-04-14 14:11 | 46.30549 | -5.67663 | 35119 ft | 436 kts | 217° |
| 2026-04-14 14:12 | 46.25360 | -5.72194 | 35125 ft | 435 kts | 217° |
| 2026-04-14 14:12 | 46.20202 | -5.76677 | 35118 ft | 435 kts | 217° |
| 2026-04-14 14:13 | 46.15019 | -5.81172 | 35133 ft | 435 kts | 217° |
| 2026-04-14 14:13 | 46.09824 | -5.85662 | 35138 ft | 435 kts | 217° |
| 2026-04-14 14:14 | 46.04627 | -5.90141 | 35131 ft | 435 kts | 217° |
| 2026-04-14 14:14 | 45.99433 | -5.94612 | 35121 ft | 435 kts | 217° |
| 2026-04-14 14:15 | 45.94234 | -5.99083 | 35140 ft | 435 kts | 217° |
| 2026-04-14 14:15 | 45.89047 | -6.03535 | 35149 ft | 434 kts | 217° |
| 2026-04-14 14:16 | 45.83864 | -6.07974 | 35153 ft | 434 kts | 217° |
| 2026-04-14 14:16 | 45.78675 | -6.12402 | 35141 ft | 434 kts | 217° |
| 2026-04-14 14:17 | 45.70881 | -6.19035 | 35142 ft | 435 kts | 217° |
| 2026-04-14 14:17 | 45.65676 | -6.23454 | 35145 ft | 435 kts | 216° |
| 2026-04-14 14:18 | 45.60470 | -6.27858 | 35155 ft | 435 kts | 216° |
| 2026-04-14 14:18 | 45.55270 | -6.32263 | 35152 ft | 434 kts | 216° |
| 2026-04-14 14:19 | 45.50073 | -6.36650 | 35162 ft | 434 kts | 216° |
| 2026-04-14 14:19 | 45.44882 | -6.41027 | 35155 ft | 433 kts | 216° |
| 2026-04-14 14:20 | 45.39689 | -6.45396 | 35170 ft | 433 kts | 216° |
| 2026-04-14 14:20 | 45.34490 | -6.49751 | 35156 ft | 434 kts | 216° |
| 2026-04-14 14:21 | 45.29280 | -6.54100 | 35164 ft | 434 kts | 216° |
| 2026-04-14 14:21 | 45.24076 | -6.58443 | 35165 ft | 434 kts | 216° |
| 2026-04-14 14:22 | 45.18909 | -6.62745 | 35161 ft | 433 kts | 216° |
| 2026-04-14 14:22 | 45.13717 | -6.67068 | 35166 ft | 433 kts | 216° |
| 2026-04-14 14:23 | 45.08521 | -6.71375 | 35171 ft | 433 kts | 216° |
| 2026-04-14 14:23 | 45.03317 | -6.75677 | 35178 ft | 433 kts | 216° |
| 2026-04-14 14:24 | 44.98111 | -6.79967 | 35171 ft | 433 kts | 216° |
| 2026-04-14 14:24 | 44.92904 | -6.84257 | 35170 ft | 433 kts | 216° |
| 2026-04-14 14:25 | 44.87696 | -6.88544 | 35168 ft | 433 kts | 215° |
| 2026-04-14 14:25 | 44.82475 | -6.92795 | 35180 ft | 433 kts | 213° |
| 2026-04-14 14:26 | 44.77112 | -6.96733 | 35179 ft | 435 kts | 211° |
| 2026-04-14 14:26 | 44.71674 | -7.00496 | 35180 ft | 435 kts | 211° |
| 2026-04-14 14:27 | 44.66245 | -7.04278 | 35182 ft | 435 kts | 211° |
| 2026-04-14 14:27 | 44.60844 | -7.08119 | 35186 ft | 435 kts | 212° |
| 2026-04-14 14:28 | 44.55438 | -7.11976 | 35187 ft | 435 kts | 212° |
| 2026-04-14 14:28 | 44.50023 | -7.15800 | 35192 ft | 436 kts | 211° |
| 2026-04-14 14:29 | 44.44601 | -7.19615 | 35198 ft | 436 kts | 211° |
| 2026-04-14 14:29 | 44.39182 | -7.23431 | 35196 ft | 435 kts | 211° |
| 2026-04-14 14:30 | 44.33778 | -7.27238 | 35199 ft | 435 kts | 211° |
| 2026-04-14 14:30 | 44.28378 | -7.31035 | 35203 ft | 434 kts | 211° |
| 2026-04-14 14:31 | 44.22975 | -7.34812 | 35205 ft | 434 kts | 211° |
| 2026-04-14 14:31 | 44.17582 | -7.38586 | 35189 ft | 434 kts | 211° |
| 2026-04-14 14:32 | 44.12184 | -7.42362 | 35200 ft | 434 kts | 211° |
| 2026-04-14 14:32 | 44.06810 | -7.46093 | 35204 ft | 434 kts | 211° |
| 2026-04-14 14:33 | 44.01398 | -7.49840 | 35203 ft | 434 kts | 211° |
| 2026-04-14 14:33 | 43.95996 | -7.53587 | 35190 ft | 434 kts | 211° |
| 2026-04-14 14:34 | 43.87872 | -7.59212 | 35190 ft | 435 kts | 211° |
| 2026-04-14 14:35 | 43.82457 | -7.62934 | 35206 ft | 435 kts | 211° |
| 2026-04-14 14:35 | 43.77052 | -7.66657 | 35201 ft | 434 kts | 211° |
| 2026-04-14 14:36 | 43.71655 | -7.70366 | 35202 ft | 434 kts | 211° |
| 2026-04-14 14:36 | 43.66252 | -7.74069 | 35200 ft | 433 kts | 211° |
| 2026-04-14 14:37 | 43.60839 | -7.77763 | 35205 ft | 433 kts | 211° |
| 2026-04-14 14:37 | 43.55425 | -7.81461 | 35196 ft | 434 kts | 211° |
| 2026-04-14 14:38 | 43.50016 | -7.85148 | 35195 ft | 434 kts | 211° |
| 2026-04-14 14:38 | 43.44601 | -7.88827 | 35217 ft | 434 kts | 211° |
| 2026-04-14 14:39 | 43.39172 | -7.92512 | 35231 ft | 435 kts | 211° |
| 2026-04-14 14:39 | 43.33749 | -7.96182 | 35202 ft | 434 kts | 211° |
| 2026-04-14 14:40 | 43.28348 | -7.99830 | 35209 ft | 435 kts | 210° |
| 2026-04-14 14:40 | 43.22918 | -8.03496 | 35217 ft | 435 kts | 210° |
| 2026-04-14 14:41 | 43.17483 | -8.07150 | 35226 ft | 435 kts | 210° |
| 2026-04-14 14:41 | 43.12042 | -8.10808 | 35207 ft | 436 kts | 210° |
| 2026-04-14 14:42 | 43.06593 | -8.14466 | 35222 ft | 437 kts | 210° |
| 2026-04-14 14:42 | 43.01130 | -8.18116 | 35240 ft | 437 kts | 210° |
| 2026-04-14 14:43 | 42.95654 | -8.21762 | 35252 ft | 437 kts | 210° |
| 2026-04-14 14:43 | 42.90217 | -8.25381 | 35247 ft | 438 kts | 210° |
| 2026-04-14 14:44 | 42.84738 | -8.29030 | 35252 ft | 438 kts | 210° |
| 2026-04-14 14:44 | 42.79258 | -8.32670 | 35257 ft | 438 kts | 210° |
| 2026-04-14 14:45 | 42.73779 | -8.36296 | 35270 ft | 437 kts | 210° |
| 2026-04-14 14:45 | 42.68318 | -8.39914 | 35266 ft | 436 kts | 210° |
| 2026-04-14 14:46 | 42.62871 | -8.43512 | 35270 ft | 435 kts | 210° |
| 2026-04-14 14:46 | 42.57425 | -8.47091 | 35271 ft | 434 kts | 210° |
| 2026-04-14 14:47 | 42.52903 | -8.50061 | 35279 ft | 434 kts | 210° |
| 2026-04-14 14:47 | 42.47468 | -8.53621 | 35281 ft | 434 kts | 210° |
| 2026-04-14 14:48 | 42.42028 | -8.57185 | 35283 ft | 434 kts | 210° |
| 2026-04-14 14:48 | 42.36596 | -8.60737 | 35283 ft | 433 kts | 210° |
| 2026-04-14 14:49 | 42.31164 | -8.64284 | 35282 ft | 433 kts | 210° |
| 2026-04-14 14:49 | 42.25730 | -8.67829 | 35273 ft | 434 kts | 210° |
| 2026-04-14 14:50 | 42.20290 | -8.71373 | 35269 ft | 434 kts | 210° |
| 2026-04-14 14:50 | 42.14847 | -8.74891 | 35274 ft | 434 kts | 210° |
| 2026-04-14 14:51 | 42.09406 | -8.78406 | 35283 ft | 433 kts | 210° |
| 2026-04-14 14:51 | 42.03974 | -8.81914 | 35270 ft | 433 kts | 210° |
| 2026-04-14 14:52 | 41.98537 | -8.85424 | 35271 ft | 433 kts | 210° |
| 2026-04-14 14:52 | 41.93101 | -8.88922 | 35278 ft | 433 kts | 210° |
| 2026-04-14 14:53 | 41.87716 | -8.92449 | 35279 ft | 430 kts | 214° |
| 2026-04-14 14:53 | 41.82857 | -8.97026 | 35254 ft | 426 kts | 220° |
| 2026-04-14 14:54 | 41.78071 | -9.01743 | 35258 ft | 428 kts | 220° |
| 2026-04-14 14:54 | 41.73259 | -9.06463 | 35258 ft | 428 kts | 220° |
| 2026-04-14 14:55 | 41.68453 | -9.11171 | 35272 ft | 428 kts | 220° |
| 2026-04-14 14:55 | 41.63654 | -9.15873 | 35279 ft | 427 kts | 220° |
| 2026-04-14 14:56 | 41.56461 | -9.22880 | 35277 ft | 426 kts | 220° |
| 2026-04-14 14:56 | 41.51674 | -9.27545 | 35272 ft | 426 kts | 220° |
| 2026-04-14 14:57 | 41.46881 | -9.32204 | 35276 ft | 426 kts | 220° |
| 2026-04-14 14:57 | 41.42084 | -9.36849 | 35280 ft | 426 kts | 220° |
| 2026-04-14 14:58 | 41.37289 | -9.41485 | 35266 ft | 426 kts | 220° |
| 2026-04-14 14:58 | 41.32484 | -9.46132 | 35270 ft | 427 kts | 220° |
| 2026-04-14 14:59 | 41.27676 | -9.50767 | 35271 ft | 427 kts | 220° |
| 2026-04-14 14:59 | 41.22864 | -9.55393 | 35278 ft | 426 kts | 220° |
| 2026-04-14 15:00 | 41.18094 | -9.59974 | 35281 ft | 426 kts | 220° |
| 2026-04-14 15:00 | 41.13293 | -9.64580 | 35278 ft | 425 kts | 220° |
| 2026-04-14 15:01 | 41.08467 | -9.69214 | 35282 ft | 425 kts | 220° |
| 2026-04-14 15:01 | 41.03701 | -9.73774 | 35281 ft | 425 kts | 220° |
| 2026-04-14 15:02 | 40.98897 | -9.78356 | 35282 ft | 425 kts | 220° |
| 2026-04-14 15:02 | 40.94091 | -9.82925 | 35280 ft | 425 kts | 220° |
| 2026-04-14 15:03 | 40.89291 | -9.87480 | 35276 ft | 425 kts | 220° |
| 2026-04-14 15:03 | 40.84492 | -9.92045 | 35281 ft | 424 kts | 220° |
| 2026-04-14 15:04 | 40.79700 | -9.96589 | 35283 ft | 424 kts | 220° |
| 2026-04-14 15:04 | 40.74903 | -10.01115 | 35283 ft | 424 kts | 220° |
| 2026-04-14 15:05 | 40.70104 | -10.05639 | 35285 ft | 424 kts | 220° |
| 2026-04-14 15:05 | 40.65306 | -10.10151 | 35273 ft | 424 kts | 220° |
| 2026-04-14 15:06 | 40.61059 | -10.15326 | 35288 ft | 412 kts | 238° |
| 2026-04-14 15:06 | 40.57748 | -10.21452 | 35291 ft | 410 kts | 238° |
| 2026-04-14 15:07 | 40.54492 | -10.27596 | 35294 ft | 409 kts | 238° |
| 2026-04-14 15:07 | 40.51248 | -10.33715 | 35296 ft | 408 kts | 238° |
| 2026-04-14 15:08 | 40.48008 | -10.39821 | 35294 ft | 407 kts | 238° |
| 2026-04-14 15:08 | 40.44768 | -10.45921 | 35291 ft | 407 kts | 238° |
| 2026-04-14 15:09 | 40.41534 | -10.52007 | 35280 ft | 407 kts | 238° |
| 2026-04-14 15:09 | 40.38296 | -10.58098 | 35279 ft | 407 kts | 238° |
| 2026-04-14 15:10 | 40.35086 | -10.64211 | 35284 ft | 406 kts | 238° |
| 2026-04-14 15:10 | 40.31907 | -10.70273 | 35287 ft | 406 kts | 238° |
| 2026-04-14 15:11 | 40.28712 | -10.76359 | 35293 ft | 405 kts | 238° |
| 2026-04-14 15:11 | 40.24999 | -10.81925 | 35274 ft | 414 kts | 219° |
| 2026-04-14 15:12 | 40.20202 | -10.86140 | 35259 ft | 416 kts | 218° |
| 2026-04-14 15:12 | 40.15348 | -10.90318 | 35259 ft | 418 kts | 218° |
| 2026-04-14 15:13 | 40.10483 | -10.94490 | 35265 ft | 419 kts | 217° |
| 2026-04-14 15:13 | 40.05621 | -10.98668 | 35283 ft | 418 kts | 217° |
| 2026-04-14 15:14 | 40.00770 | -11.02846 | 35291 ft | 418 kts | 217° |
| 2026-04-14 15:14 | 39.95920 | -11.07026 | 35293 ft | 417 kts | 217° |
| 2026-04-14 15:15 | 39.91072 | -11.11174 | 35288 ft | 417 kts | 217° |
| 2026-04-14 15:15 | 39.86217 | -11.15320 | 35291 ft | 417 kts | 217° |
| 2026-04-14 15:16 | 39.81365 | -11.19468 | 35291 ft | 417 kts | 217° |
| 2026-04-14 15:16 | 39.76511 | -11.23618 | 35294 ft | 417 kts | 217° |
| 2026-04-14 15:17 | 39.71649 | -11.27756 | 35299 ft | 417 kts | 217° |
| 2026-04-14 15:17 | 39.66790 | -11.31887 | 35285 ft | 418 kts | 217° |
| 2026-04-14 15:18 | 39.61929 | -11.36008 | 35293 ft | 417 kts | 217° |
| 2026-04-14 15:18 | 39.57066 | -11.40127 | 35299 ft | 417 kts | 217° |
| 2026-04-14 15:19 | 39.52200 | -11.44242 | 35297 ft | 417 kts | 217° |
| 2026-04-14 15:19 | 39.47337 | -11.48342 | 35300 ft | 417 kts | 217° |
| 2026-04-14 15:20 | 39.42470 | -11.52441 | 35295 ft | 417 kts | 216° |
| 2026-04-14 15:20 | 39.37597 | -11.56538 | 35297 ft | 418 kts | 216° |
| 2026-04-14 15:21 | 39.32727 | -11.60632 | 35298 ft | 418 kts | 216° |
| 2026-04-14 15:21 | 39.27881 | -11.64695 | 35300 ft | 418 kts | 216° |
| 2026-04-14 15:22 | 39.22995 | -11.68779 | 35302 ft | 418 kts | 216° |
| 2026-04-14 15:22 | 39.18113 | -11.72864 | 35284 ft | 419 kts | 216° |
| 2026-04-14 15:23 | 39.13218 | -11.76948 | 35293 ft | 419 kts | 216° |
| 2026-04-14 15:23 | 39.08312 | -11.81022 | 35295 ft | 420 kts | 216° |
| 2026-04-14 15:24 | 39.03412 | -11.85095 | 35298 ft | 420 kts | 216° |
| 2026-04-14 15:24 | 38.98504 | -11.89182 | 35301 ft | 420 kts | 216° |
| 2026-04-14 15:25 | 38.93598 | -11.93255 | 35293 ft | 420 kts | 216° |
| 2026-04-14 15:25 | 38.88668 | -11.97324 | 35297 ft | 421 kts | 216° |
| 2026-04-14 15:26 | 38.83741 | -12.01394 | 35301 ft | 421 kts | 216° |
| 2026-04-14 15:26 | 38.78807 | -12.05458 | 35305 ft | 421 kts | 216° |
| 2026-04-14 15:27 | 38.73880 | -12.09514 | 35310 ft | 421 kts | 216° |
| 2026-04-14 15:27 | 38.68956 | -12.13555 | 35306 ft | 420 kts | 216° |
| 2026-04-14 15:28 | 38.64035 | -12.17599 | 35305 ft | 420 kts | 216° |
| 2026-04-14 15:28 | 38.59108 | -12.21641 | 35312 ft | 420 kts | 216° |
| 2026-04-14 15:29 | 38.54212 | -12.25638 | 35308 ft | 420 kts | 216° |
| 2026-04-14 15:29 | 38.49287 | -12.29656 | 35303 ft | 420 kts | 215° |
| 2026-04-14 15:30 | 38.44359 | -12.33667 | 35297 ft | 420 kts | 215° |
| 2026-04-14 15:30 | 38.40227 | -12.37031 | 35290 ft | 421 kts | 215° |
| 2026-04-14 15:31 | 38.35284 | -12.41053 | 35299 ft | 421 kts | 215° |
| 2026-04-14 15:31 | 38.30376 | -12.45033 | 35310 ft | 421 kts | 215° |
| 2026-04-14 15:32 | 38.25437 | -12.49034 | 35316 ft | 421 kts | 215° |
| 2026-04-14 15:32 | 38.20498 | -12.53029 | 35298 ft | 420 kts | 215° |
| 2026-04-14 15:33 | 38.15557 | -12.57016 | 35308 ft | 421 kts | 215° |
| 2026-04-14 15:33 | 38.10608 | -12.60991 | 35300 ft | 421 kts | 215° |
| 2026-04-14 15:34 | 38.05664 | -12.64975 | 35313 ft | 421 kts | 215° |
| 2026-04-14 15:34 | 38.00724 | -12.68960 | 35306 ft | 421 kts | 215° |
| 2026-04-14 15:35 | 37.95763 | -12.72931 | 35301 ft | 421 kts | 214° |
| 2026-04-14 15:35 | 37.90806 | -12.76903 | 35297 ft | 422 kts | 214° |
| 2026-04-14 15:36 | 37.85836 | -12.80873 | 35319 ft | 422 kts | 214° |
| 2026-04-14 15:36 | 37.80886 | -12.84812 | 35324 ft | 422 kts | 214° |
| 2026-04-14 15:37 | 37.75928 | -12.88758 | 35324 ft | 421 kts | 214° |
| 2026-04-14 15:37 | 37.70968 | -12.92718 | 35323 ft | 421 kts | 214° |
| 2026-04-14 15:38 | 37.65990 | -12.96672 | 35324 ft | 421 kts | 214° |
| 2026-04-14 15:38 | 37.61047 | -13.00583 | 35322 ft | 421 kts | 214° |
| 2026-04-14 15:39 | 37.56072 | -13.04523 | 35320 ft | 420 kts | 214° |
| 2026-04-14 15:39 | 37.51137 | -13.08419 | 35321 ft | 420 kts | 214° |
| 2026-04-14 15:40 | 37.46183 | -13.12336 | 35322 ft | 420 kts | 214° |
| 2026-04-14 15:40 | 37.41229 | -13.16242 | 35315 ft | 420 kts | 214° |
| 2026-04-14 15:41 | 37.36279 | -13.20135 | 35320 ft | 420 kts | 214° |
| 2026-04-14 15:41 | 37.31329 | -13.24029 | 35325 ft | 420 kts | 214° |
| 2026-04-14 15:42 | 37.26374 | -13.27917 | 35324 ft | 420 kts | 214° |
| 2026-04-14 15:42 | 37.21425 | -13.31793 | 35325 ft | 419 kts | 214° |
| 2026-04-14 15:43 | 37.16462 | -13.35674 | 35319 ft | 420 kts | 214° |
| 2026-04-14 15:43 | 37.11504 | -13.39543 | 35319 ft | 420 kts | 214° |
| 2026-04-14 15:44 | 37.06546 | -13.43410 | 35321 ft | 420 kts | 214° |
| 2026-04-14 15:44 | 37.01609 | -13.47243 | 35322 ft | 420 kts | 214° |
| 2026-04-14 15:45 | 36.96639 | -13.51097 | 35324 ft | 420 kts | 214° |
| 2026-04-14 15:45 | 36.91676 | -13.54954 | 35318 ft | 420 kts | 214° |
| 2026-04-14 15:46 | 36.86710 | -13.58802 | 35321 ft | 420 kts | 214° |
| 2026-04-14 15:46 | 36.81750 | -13.62645 | 35325 ft | 420 kts | 213° |
| 2026-04-14 15:47 | 36.76777 | -13.66471 | 35326 ft | 420 kts | 213° |
| 2026-04-14 15:47 | 36.71808 | -13.70301 | 35330 ft | 420 kts | 213° |
| 2026-04-14 15:48 | 36.66838 | -13.74130 | 35318 ft | 420 kts | 213° |
| 2026-04-14 15:48 | 36.61860 | -13.77965 | 35318 ft | 421 kts | 213° |
| 2026-04-14 15:49 | 36.56877 | -13.81789 | 35321 ft | 421 kts | 213° |
| 2026-04-14 15:49 | 36.51886 | -13.85603 | 35324 ft | 421 kts | 213° |
| 2026-04-14 15:50 | 36.46900 | -13.89424 | 35331 ft | 421 kts | 213° |
| 2026-04-14 15:50 | 36.41911 | -13.93239 | 35336 ft | 421 kts | 213° |
| 2026-04-14 15:51 | 36.36922 | -13.97046 | 35325 ft | 421 kts | 213° |
| 2026-04-14 15:51 | 36.31923 | -14.00841 | 35327 ft | 421 kts | 213° |
| 2026-04-14 15:52 | 36.26919 | -14.04641 | 35326 ft | 422 kts | 213° |
| 2026-04-14 15:52 | 36.21916 | -14.08440 | 35330 ft | 422 kts | 213° |
| 2026-04-14 15:53 | 36.16909 | -14.12238 | 35331 ft | 422 kts | 213° |
| 2026-04-14 15:53 | 36.11928 | -14.16014 | 35323 ft | 422 kts | 213° |
| 2026-04-14 15:54 | 36.04404 | -14.21691 | 35335 ft | 423 kts | 213° |
| 2026-04-14 15:55 | 35.99384 | -14.25480 | 35337 ft | 423 kts | 213° |
| 2026-04-14 15:55 | 35.94363 | -14.29266 | 35339 ft | 422 kts | 213° |
| 2026-04-14 15:56 | 35.89343 | -14.33038 | 35334 ft | 422 kts | 213° |
| 2026-04-14 15:56 | 35.84322 | -14.36804 | 35328 ft | 422 kts | 213° |
| 2026-04-14 15:57 | 35.79296 | -14.40572 | 35331 ft | 423 kts | 213° |
| 2026-04-14 15:57 | 35.74270 | -14.44336 | 35333 ft | 423 kts | 213° |
| 2026-04-14 15:58 | 35.69231 | -14.48098 | 35334 ft | 423 kts | 212° |
| 2026-04-14 15:58 | 35.64187 | -14.51848 | 35338 ft | 423 kts | 212° |
| 2026-04-14 15:59 | 35.59148 | -14.55604 | 35330 ft | 423 kts | 212° |
| 2026-04-14 15:59 | 35.54110 | -14.59365 | 35333 ft | 424 kts | 212° |
| 2026-04-14 16:00 | 35.49070 | -14.63111 | 35335 ft | 424 kts | 212° |
| 2026-04-14 16:00 | 35.44022 | -14.66851 | 35338 ft | 423 kts | 212° |
| 2026-04-14 16:01 | 35.38976 | -14.70587 | 35339 ft | 423 kts | 212° |
| 2026-04-14 16:01 | 35.33935 | -14.74314 | 35335 ft | 423 kts | 212° |
| 2026-04-14 16:02 | 35.28922 | -14.78021 | 35325 ft | 424 kts | 212° |
| 2026-04-14 16:02 | 35.23871 | -14.81752 | 35327 ft | 424 kts | 212° |
| 2026-04-14 16:03 | 35.18810 | -14.85473 | 35330 ft | 424 kts | 212° |
| 2026-04-14 16:03 | 35.13743 | -14.89182 | 35331 ft | 425 kts | 212° |
| 2026-04-14 16:04 | 35.08680 | -14.92907 | 35333 ft | 425 kts | 212° |
| 2026-04-14 16:04 | 35.03624 | -14.96631 | 35336 ft | 424 kts | 212° |
| 2026-04-14 16:05 | 34.98563 | -15.00339 | 35337 ft | 424 kts | 212° |
| 2026-04-14 16:05 | 34.93491 | -15.04035 | 35335 ft | 424 kts | 212° |
| 2026-04-14 16:06 | 34.88429 | -15.07723 | 35333 ft | 424 kts | 212° |
| 2026-04-14 16:06 | 34.83376 | -15.11412 | 35333 ft | 424 kts | 212° |
| 2026-04-14 16:07 | 34.78322 | -15.15094 | 35327 ft | 424 kts | 212° |
| 2026-04-14 16:07 | 34.73258 | -15.18768 | 35326 ft | 424 kts | 212° |
| 2026-04-14 16:08 | 34.68192 | -15.22443 | 35324 ft | 424 kts | 212° |
| 2026-04-14 16:08 | 34.63125 | -15.26114 | 35325 ft | 424 kts | 212° |
| 2026-04-14 16:09 | 34.58047 | -15.29784 | 35326 ft | 424 kts | 212° |
| 2026-04-14 16:09 | 34.52979 | -15.33451 | 35326 ft | 424 kts | 212° |
| 2026-04-14 16:10 | 34.47930 | -15.37094 | 35319 ft | 424 kts | 212° |
| 2026-04-14 16:10 | 34.42846 | -15.40751 | 35318 ft | 425 kts | 212° |
| 2026-04-14 16:11 | 34.37766 | -15.44403 | 35322 ft | 425 kts | 212° |
| 2026-04-14 16:11 | 34.32673 | -15.48056 | 35321 ft | 425 kts | 212° |
| 2026-04-14 16:12 | 34.27584 | -15.51710 | 35325 ft | 425 kts | 212° |
| 2026-04-14 16:12 | 34.22500 | -15.55361 | 35313 ft | 425 kts | 212° |
| 2026-04-14 16:13 | 34.17407 | -15.59010 | 35304 ft | 426 kts | 212° |
| 2026-04-14 16:13 | 34.12302 | -15.62648 | 35301 ft | 426 kts | 212° |
| 2026-04-14 16:14 | 34.08054 | -15.65672 | 35310 ft | 427 kts | 212° |
| 2026-04-14 16:14 | 34.02942 | -15.69314 | 35315 ft | 426 kts | 212° |
| 2026-04-14 16:15 | 33.97830 | -15.72952 | 35317 ft | 426 kts | 212° |
| 2026-04-14 16:15 | 33.92720 | -15.76581 | 35310 ft | 426 kts | 211° |
| 2026-04-14 16:16 | 33.87612 | -15.80209 | 35316 ft | 427 kts | 211° |
| 2026-04-14 16:16 | 33.82494 | -15.83837 | 35321 ft | 427 kts | 211° |
| 2026-04-14 16:17 | 33.77376 | -15.87461 | 35314 ft | 427 kts | 211° |
| 2026-04-14 16:17 | 33.72249 | -15.91082 | 35318 ft | 427 kts | 211° |
| 2026-04-14 16:18 | 33.67126 | -15.94698 | 35304 ft | 427 kts | 211° |
| 2026-04-14 16:18 | 33.62064 | -15.98438 | 35307 ft | 427 kts | 213° |
| 2026-04-14 16:19 | 33.57081 | -16.02324 | 35324 ft | 427 kts | 214° |
| 2026-04-14 16:19 | 33.52097 | -16.06198 | 35318 ft | 427 kts | 213° |
| 2026-04-14 16:20 | 33.47094 | -16.10045 | 35316 ft | 427 kts | 213° |
| 2026-04-14 16:20 | 33.42086 | -16.13866 | 35316 ft | 427 kts | 213° |
| 2026-04-14 16:21 | 33.37072 | -16.17684 | 35322 ft | 427 kts | 213° |
| 2026-04-14 16:21 | 33.32056 | -16.21493 | 35320 ft | 427 kts | 213° |
| 2026-04-14 16:22 | 33.27040 | -16.25307 | 35314 ft | 427 kts | 213° |
| 2026-04-14 16:22 | 33.22030 | -16.29111 | 35313 ft | 427 kts | 213° |
| 2026-04-14 16:23 | 33.17013 | -16.32914 | 35313 ft | 427 kts | 213° |
| 2026-04-14 16:23 | 33.11995 | -16.36707 | 35312 ft | 427 kts | 213° |
| 2026-04-14 16:24 | 33.06980 | -16.40502 | 35313 ft | 427 kts | 213° |
| 2026-04-14 16:24 | 33.02010 | -16.44262 | 35022 ft | 417 kts | 213° |
| 2026-04-14 16:24 | 32.99570 | -16.46105 | 34647 ft | 413 kts | 213° |
| 2026-04-14 16:25 | 32.97155 | -16.47928 | 34235 ft | 409 kts | 213° |
| 2026-04-14 16:25 | 32.94764 | -16.49730 | 33818 ft | 405 kts | 213° |
| 2026-04-14 16:25 | 32.92450 | -16.51608 | 33373 ft | 401 kts | 220° |
| 2026-04-14 16:25 | 32.90344 | -16.53769 | 32907 ft | 399 kts | 221° |
| 2026-04-14 16:26 | 32.88284 | -16.55955 | 32558 ft | 393 kts | 222° |
| 2026-04-14 16:26 | 32.86282 | -16.58117 | 32390 ft | 385 kts | 222° |
| 2026-04-14 16:26 | 32.84321 | -16.60242 | 31771 ft | 389 kts | 222° |
| 2026-04-14 16:26 | 32.82251 | -16.62406 | 30507 ft | 404 kts | 217° |
| 2026-04-14 16:27 | 32.79660 | -16.64041 | 28106 ft | 445 kts | 199° |
| 2026-04-14 16:27 | 32.76687 | -16.65196 | 27103 ft | 450 kts | 198° |
| 2026-04-14 16:27 | 32.73709 | -16.66350 | 26239 ft | 450 kts | 199° |
| 2026-04-14 16:27 | 32.70740 | -16.67515 | 25408 ft | 449 kts | 199° |
| 2026-04-14 16:28 | 32.67784 | -16.68696 | 24596 ft | 448 kts | 199° |
| 2026-04-14 16:28 | 32.64821 | -16.69835 | 23798 ft | 448 kts | 194° |
| 2026-04-14 16:28 | 32.61730 | -16.70192 | 22863 ft | 448 kts | 178° |
| 2026-04-14 16:28 | 32.58654 | -16.69503 | 21632 ft | 456 kts | 160° |
| 2026-04-14 16:29 | 32.55849 | -16.67741 | 20653 ft | 457 kts | 143° |
| 2026-04-14 16:29 | 32.53612 | -16.65094 | 19816 ft | 453 kts | 126° |
| 2026-04-14 16:29 | 32.52139 | -16.61835 | 19026 ft | 448 kts | 109° |
| 2026-04-14 16:29 | 32.51423 | -16.58264 | 18195 ft | 443 kts | 99° |
| 2026-04-14 16:30 | 32.50891 | -16.54691 | 17337 ft | 438 kts | 96° |
| 2026-04-14 16:30 | 32.50904 | -16.51118 | 16583 ft | 430 kts | 81° |
| 2026-04-14 16:30 | 32.51699 | -16.47742 | 15876 ft | 423 kts | 66° |
| 2026-04-14 16:30 | 32.53192 | -16.44771 | 15188 ft | 418 kts | 51° |
| 2026-04-14 16:31 | 32.55262 | -16.42401 | 14551 ft | 412 kts | 36° |
| 2026-04-14 16:31 | 32.57753 | -16.40759 | 13900 ft | 409 kts | 21° |
| 2026-04-14 16:31 | 32.60492 | -16.39932 | 13256 ft | 405 kts | 8° |
| 2026-04-14 16:31 | 32.63258 | -16.39402 | 12562 ft | 401 kts | 11° |
| 2026-04-14 16:32 | 32.65977 | -16.38773 | 11944 ft | 395 kts | 12° |
| 2026-04-14 16:32 | 32.68666 | -16.38154 | 11250 ft | 392 kts | 12° |
| 2026-04-14 16:32 | 32.71324 | -16.37550 | 10599 ft | 387 kts | 12° |
| 2026-04-14 16:32 | 32.73954 | -16.36962 | 9882 ft | 383 kts | 12° |
| 2026-04-14 16:33 | 32.76532 | -16.36390 | 9143 ft | 379 kts | 12° |
| 2026-04-14 16:33 | 32.79109 | -16.35823 | 8396 ft | 375 kts | 11° |
| 2026-04-14 16:33 | 32.81665 | -16.35261 | 7663 ft | 371 kts | 12° |
| 2026-04-14 16:33 | 32.84192 | -16.34710 | 6989 ft | 367 kts | 12° |
| 2026-04-14 16:34 | 32.86688 | -16.34165 | 6254 ft | 363 kts | 11° |
| 2026-04-14 16:34 | 32.89202 | -16.33972 | 5546 ft | 362 kts | 356° |
| 2026-04-14 16:34 | 32.91633 | -16.34700 | 4815 ft | 362 kts | 337° |
| 2026-04-14 16:34 | 32.93729 | -16.36336 | 4193 ft | 360 kts | 317° |
| 2026-04-14 16:35 | 32.95223 | -16.38643 | 3984 ft | 345 kts | 299° |
| 2026-04-14 16:35 | 32.96026 | -16.41256 | 3956 ft | 328 kts | 282° |
| 2026-04-14 16:35 | 32.96149 | -16.43885 | 3967 ft | 310 kts | 264° |
| 2026-04-14 16:35 | 32.95598 | -16.46288 | 3967 ft | 293 kts | 244° |
| 2026-04-14 16:36 | 32.94482 | -16.48219 | 3970 ft | 276 kts | 224° |
| 2026-04-14 16:36 | 32.93003 | -16.49557 | 3972 ft | 260 kts | 210° |
| 2026-04-14 16:36 | 32.91500 | -16.50634 | 3972 ft | 245 kts | 210° |
| 2026-04-14 16:36 | 32.89984 | -16.51720 | 3977 ft | 265 kts | 209° |
| 2026-04-14 16:37 | 32.88383 | -16.52864 | 3973 ft | 270 kts | 210° |
| 2026-04-14 16:37 | 32.86791 | -16.54003 | 3974 ft | 271 kts | 210° |
| 2026-04-14 16:37 | 32.85191 | -16.55151 | 3971 ft | 262 kts | 210° |
| 2026-04-14 16:37 | 32.83675 | -16.56243 | 3975 ft | 248 kts | 210° |
| 2026-04-14 16:38 | 32.82197 | -16.57305 | 3985 ft | 248 kts | 210° |
| 2026-04-14 16:38 | 32.80716 | -16.58370 | 3979 ft | 249 kts | 210° |
| 2026-04-14 16:38 | 32.79231 | -16.59439 | 3980 ft | 249 kts | 210° |
| 2026-04-14 16:38 | 32.77743 | -16.60508 | 3982 ft | 250 kts | 210° |
| 2026-04-14 16:39 | 32.76257 | -16.61572 | 3979 ft | 249 kts | 210° |
| 2026-04-14 16:39 | 32.74775 | -16.62629 | 3981 ft | 249 kts | 210° |
| 2026-04-14 16:39 | 32.73286 | -16.63693 | 3982 ft | 248 kts | 210° |
| 2026-04-14 16:39 | 32.71824 | -16.64742 | 3982 ft | 249 kts | 209° |
| 2026-04-14 16:40 | 32.70338 | -16.65807 | 3982 ft | 248 kts | 210° |
| 2026-04-14 16:40 | 32.68854 | -16.66869 | 3975 ft | 249 kts | 210° |
| 2026-04-14 16:40 | 32.67395 | -16.67912 | 3868 ft | 240 kts | 210° |
| 2026-04-14 16:40 | 32.65996 | -16.68915 | 3742 ft | 230 kts | 210° |
| 2026-04-14 16:41 | 32.64634 | -16.69847 | 3614 ft | 221 kts | 207° |
| 2026-04-14 16:41 | 32.63326 | -16.70724 | 3483 ft | 212 kts | 213° |
| 2026-04-14 16:41 | 32.62202 | -16.71806 | 3353 ft | 204 kts | 228° |
| 2026-04-14 16:41 | 32.61394 | -16.73137 | 3204 ft | 195 kts | 245° |
| 2026-04-14 16:42 | 32.60935 | -16.74650 | 2815 ft | 200 kts | 262° |
| 2026-04-14 16:42 | 32.60858 | -16.76317 | 2350 ft | 206 kts | 278° |
| 2026-04-14 16:42 | 32.61194 | -16.77972 | 1925 ft | 208 kts | 295° |
| 2026-04-14 16:42 | 32.62021 | -16.79325 | 1642 ft | 200 kts | 321° |
| 2026-04-14 16:43 | 32.63183 | -16.80142 | 1369 ft | 191 kts | 348° |
| 2026-04-14 16:43 | 32.64445 | -16.80170 | 1327 ft | 177 kts | 15° |
| 2026-04-14 16:43 | 32.65545 | -16.79500 | 1643 ft | 172 kts | 35° |
| 2026-04-14 16:43 | 32.66613 | -16.78960 | 1382 ft | 166 kts | 12° |
| 2026-04-14 16:44 | 32.67594 | -16.78457 | 1478 ft | 140 kts | 40° |
| 2026-04-14 16:44 | 32.68199 | -16.77583 | 1972 ft | 138 kts | 63° |
| 2026-04-14 16:44 | 32.68421 | -16.76486 | 2316 ft | 136 kts | 92° |
| 2026-04-14 16:45 | 32.66920 | -16.75052 | 1872 ft | 172 kts | 189° |
| 2026-04-14 16:45 | 32.65788 | -16.75520 | 2032 ft | 173 kts | 200° |
| 2026-04-14 16:45 | 32.64654 | -16.76028 | 2276 ft | 175 kts | 200° |
| 2026-04-14 16:45 | 32.63502 | -16.76538 | 2531 ft | 178 kts | 199° |
| 2026-04-14 16:46 | 32.62340 | -16.77052 | 2792 ft | 178 kts | 200° |
| 2026-04-14 16:46 | 32.61291 | -16.77824 | 2887 ft | 176 kts | 227° |
| 2026-04-14 16:46 | 32.60767 | -16.79093 | 2428 ft | 173 kts | 264° |
| 2026-04-14 16:46 | 32.60935 | -16.80468 | 1893 ft | 168 kts | 299° |
| 2026-04-14 16:47 | 32.61674 | -16.81473 | 1942 ft | 163 kts | 328° |
| 2026-04-14 16:47 | 32.62737 | -16.81903 | 1995 ft | 163 kts | 0° |
| 2026-04-14 16:47 | 32.63823 | -16.81609 | 1998 ft | 162 kts | 27° |
| 2026-04-14 16:47 | 32.64875 | -16.81160 | 1937 ft | 154 kts | 15° |
| 2026-04-14 16:48 | 32.65877 | -16.80810 | 1606 ft | 146 kts | 21° |
| 2026-04-14 16:48 | 32.66822 | -16.80385 | 1136 ft | 148 kts | 22° |
| 2026-04-14 16:48 | 32.67745 | -16.79800 | 576 ft | 150 kts | 37° |
| 2026-04-14 16:48 | 32.68472 | -16.78984 | 363 ft | 140 kts | 43° |
| 2026-04-14 16:49 | 32.69159 | -16.78183 | 208 ft | 137 kts | 43° |
| 2026-04-14 16:49 | 32.69766 | -16.77474 | 176 ft | 89 kts | 44° |
| 2026-04-14 16:49 | 32.69950 | -16.77207 | 176 ft | 16 kts | 110° |
| 2026-04-14 16:49 | 32.69879 | -16.77178 | 176 ft | 0 kts | 180° |
| 2026-04-14 16:50 | 32.69878 | -16.77178 | 176 ft | 0 kts | 180° |
| 2026-04-14 16:50 | 32.69845 | -16.77183 | 176 ft | 11 kts | 195° |
| 2026-04-14 16:50 | 32.69770 | -16.77260 | 176 ft | 16 kts | 226° |
| 2026-04-14 16:51 | 32.69690 | -16.77361 | 176 ft | 16 kts | 227° |
| 2026-04-14 16:51 | 32.69615 | -16.77453 | 176 ft | 16 kts | 226° |
| 2026-04-14 16:51 | 32.69531 | -16.77559 | 176 ft | 19 kts | 227° |
| 2026-04-14 16:51 | 32.69459 | -16.77650 | 176 ft | 8 kts | 226° |
| 2026-04-14 16:52 | 32.69423 | -16.77670 | 176 ft | 6 kts | 164° |
| 2026-04-14 16:52 | 32.69396 | -16.77641 | 176 ft | 2 kts | 140° |
| 2026-04-14 16:52 | 32.69388 | -16.77632 | 176 ft | 0 kts | 139° |
| 2026-04-14 17:02 | 32.69393 | -16.77639 | 176 ft | 4 kts | 141° |
| 2026-04-14 17:03 | 32.69416 | -16.77656 | 176 ft | 4 kts | 157° |
| 2026-04-14 17:03 | 32.69440 | -16.77663 | 176 ft | 4 kts | 194° |
| 2026-04-14 17:03 | 32.69454 | -16.77655 | 176 ft | 1 kts | 226° |
| 2026-04-14 17:03 | 32.69456 | -16.77652 | 176 ft | 0 kts | 226° |
| 2026-04-14 17:04 | 32.69455 | -16.77654 | 176 ft | 2 kts | 225° |
| 2026-04-14 17:04 | 32.69413 | -16.77704 | 176 ft | 14 kts | 225° |
| 2026-04-14 17:05 | 32.69365 | -16.77762 | 176 ft | 0 kts | 226° |